sensor_id;sensor_type;location;lat;lon;timestamp;P1;durP1;ratioP1;P2;durP2;ratioP2
56435;SDS011;42335;44.872;20.658;2023-04-30T00:01:14;31.58;;;15.20;;
56435;SDS011;42335;44.872;20.658;2023-04-30T00:03:40;39.97;;;14.88;;
56435;SDS011;42335;44.872;20.658;2023-04-30T00:06:06;27.48;;;15.68;;
56435;SDS011;42335;44.872;20.658;2023-04-30T00:08:32;27.77;;;14.00;;
56435;SDS011;42335;44.872;20.658;2023-04-30T00:10:59;21.42;;;13.77;;
56435;SDS011;42335;44.872;20.658;2023-04-30T00:13:25;27.52;;;15.27;;
56435;SDS011;42335;44.872;20.658;2023-04-30T00:15:51;32.30;;;15.93;;
56435;SDS011;42335;44.872;20.658;2023-04-30T00:18:17;36.10;;;16.80;;
56435;SDS011;42335;44.872;20.658;2023-04-30T00:20:43;27.05;;;15.73;;
56435;SDS011;42335;44.872;20.658;2023-04-30T00:23:09;31.85;;;15.90;;
56435;SDS011;42335;44.872;20.658;2023-04-30T00:25:35;31.52;;;17.08;;
56435;SDS011;42335;44.872;20.658;2023-04-30T00:28:01;32.72;;;15.50;;
56435;SDS011;42335;44.872;20.658;2023-04-30T00:30:27;28.55;;;17.75;;
56435;SDS011;42335;44.872;20.658;2023-04-30T00:32:54;27.25;;;16.88;;
56435;SDS011;42335;44.872;20.658;2023-04-30T00:35:20;34.72;;;18.05;;
56435;SDS011;42335;44.872;20.658;2023-04-30T00:37:46;38.88;;;18.27;;
56435;SDS011;42335;44.872;20.658;2023-04-30T00:40:12;28.83;;;16.70;;
56435;SDS011;42335;44.872;20.658;2023-04-30T00:42:38;36.53;;;19.00;;
56435;SDS011;42335;44.872;20.658;2023-04-30T00:45:04;32.95;;;17.70;;
56435;SDS011;42335;44.872;20.658;2023-04-30T00:47:31;37.08;;;19.05;;
56435;SDS011;42335;44.872;20.658;2023-04-30T00:49:57;33.83;;;18.48;;
56435;SDS011;42335;44.872;20.658;2023-04-30T00:52:23;32.47;;;17.63;;
56435;SDS011;42335;44.872;20.658;2023-04-30T00:54:50;30.83;;;17.15;;
56435;SDS011;42335;44.872;20.658;2023-04-30T00:57:18;35.92;;;19.58;;
56435;SDS011;42335;44.872;20.658;2023-04-30T00:59:45;33.38;;;19.20;;
56435;SDS011;42335;44.872;20.658;2023-04-30T01:02:12;42.95;;;21.38;;
56435;SDS011;42335;44.872;20.658;2023-04-30T01:04:38;36.67;;;20.77;;
56435;SDS011;42335;44.872;20.658;2023-04-30T01:07:04;34.53;;;18.35;;
56435;SDS011;42335;44.872;20.658;2023-04-30T01:09:30;36.05;;;18.20;;
56435;SDS011;42335;44.872;20.658;2023-04-30T01:12:12;41.30;;;20.77;;
56435;SDS011;42335;44.872;20.658;2023-04-30T01:14:44;40.90;;;21.20;;
56435;SDS011;42335;44.872;20.658;2023-04-30T01:17:27;39.63;;;20.02;;
56435;SDS011;42335;44.872;20.658;2023-04-30T01:19:54;34.25;;;19.58;;
56435;SDS011;42335;44.872;20.658;2023-04-30T01:30:19;31.85;;;17.50;;
56435;SDS011;42335;44.872;20.658;2023-04-30T01:32:46;32.28;;;17.42;;
56435;SDS011;42335;44.872;20.658;2023-04-30T01:35:12;30.77;;;18.50;;
56435;SDS011;42335;44.872;20.658;2023-04-30T01:48:02;29.75;;;16.63;;
56435;SDS011;42335;44.872;20.658;2023-04-30T01:53:20;25.27;;;15.63;;
56435;SDS011;42335;44.872;20.658;2023-04-30T01:55:50;29.40;;;15.10;;
56435;SDS011;42335;44.872;20.658;2023-04-30T01:58:17;25.77;;;15.40;;
56435;SDS011;42335;44.872;20.658;2023-04-30T02:00:45;24.80;;;14.73;;
56435;SDS011;42335;44.872;20.658;2023-04-30T02:03:11;40.33;;;15.73;;
56435;SDS011;42335;44.872;20.658;2023-04-30T02:05:37;20.58;;;14.35;;
56435;SDS011;42335;44.872;20.658;2023-04-30T02:08:03;21.05;;;13.52;;
56435;SDS011;42335;44.872;20.658;2023-04-30T02:10:29;21.00;;;13.20;;
56435;SDS011;42335;44.872;20.658;2023-04-30T02:12:55;23.58;;;14.63;;
56435;SDS011;42335;44.872;20.658;2023-04-30T02:15:22;22.20;;;13.45;;
56435;SDS011;42335;44.872;20.658;2023-04-30T02:17:48;23.23;;;13.30;;
56435;SDS011;42335;44.872;20.658;2023-04-30T02:20:14;17.42;;;11.77;;
56435;SDS011;42335;44.872;20.658;2023-04-30T02:22:40;19.08;;;12.00;;
56435;SDS011;42335;44.872;20.658;2023-04-30T02:25:06;22.02;;;12.35;;
56435;SDS011;42335;44.872;20.658;2023-04-30T02:27:33;18.73;;;12.43;;
56435;SDS011;42335;44.872;20.658;2023-04-30T02:29:59;21.85;;;12.25;;
56435;SDS011;42335;44.872;20.658;2023-04-30T02:32:25;23.13;;;11.68;;
56435;SDS011;42335;44.872;20.658;2023-04-30T02:34:51;19.85;;;12.27;;
56435;SDS011;42335;44.872;20.658;2023-04-30T02:37:17;15.27;;;10.80;;
56435;SDS011;42335;44.872;20.658;2023-04-30T02:39:43;19.95;;;11.95;;
56435;SDS011;42335;44.872;20.658;2023-04-30T02:42:09;20.63;;;11.40;;
56435;SDS011;42335;44.872;20.658;2023-04-30T02:44:36;16.73;;;11.40;;
56435;SDS011;42335;44.872;20.658;2023-04-30T02:47:02;20.30;;;11.98;;
56435;SDS011;42335;44.872;20.658;2023-04-30T02:49:28;18.90;;;11.57;;
56435;SDS011;42335;44.872;20.658;2023-04-30T02:51:54;16.58;;;11.63;;
56435;SDS011;42335;44.872;20.658;2023-04-30T02:54:20;18.52;;;12.00;;
56435;SDS011;42335;44.872;20.658;2023-04-30T02:56:46;19.75;;;11.52;;
56435;SDS011;42335;44.872;20.658;2023-04-30T02:59:12;19.63;;;11.85;;
56435;SDS011;42335;44.872;20.658;2023-04-30T03:01:38;17.33;;;11.55;;
56435;SDS011;42335;44.872;20.658;2023-04-30T03:04:05;22.27;;;12.27;;
56435;SDS011;42335;44.872;20.658;2023-04-30T03:06:31;17.55;;;11.50;;
56435;SDS011;42335;44.872;20.658;2023-04-30T03:08:57;22.23;;;12.38;;
56435;SDS011;42335;44.872;20.658;2023-04-30T03:11:24;17.40;;;12.05;;
56435;SDS011;42335;44.872;20.658;2023-04-30T03:13:50;17.77;;;10.25;;
56435;SDS011;42335;44.872;20.658;2023-04-30T03:16:16;21.73;;;11.73;;
56435;SDS011;42335;44.872;20.658;2023-04-30T03:18:43;23.27;;;12.45;;
56435;SDS011;42335;44.872;20.658;2023-04-30T03:21:09;29.48;;;12.25;;
56435;SDS011;42335;44.872;20.658;2023-04-30T03:23:35;16.38;;;11.48;;
56435;SDS011;42335;44.872;20.658;2023-04-30T03:26:01;17.13;;;11.25;;
56435;SDS011;42335;44.872;20.658;2023-04-30T03:28:27;15.27;;;10.48;;
56435;SDS011;42335;44.872;20.658;2023-04-30T03:30:53;20.73;;;9.88;;
56435;SDS011;42335;44.872;20.658;2023-04-30T03:33:19;25.48;;;12.07;;
56435;SDS011;42335;44.872;20.658;2023-04-30T03:35:45;15.82;;;11.05;;
56435;SDS011;42335;44.872;20.658;2023-04-30T03:38:13;16.50;;;10.55;;
56435;SDS011;42335;44.872;20.658;2023-04-30T03:40:39;19.48;;;11.32;;
56435;SDS011;42335;44.872;20.658;2023-04-30T03:43:05;19.90;;;11.68;;
56435;SDS011;42335;44.872;20.658;2023-04-30T03:45:31;15.02;;;10.52;;
56435;SDS011;42335;44.872;20.658;2023-04-30T03:47:57;19.98;;;11.38;;
56435;SDS011;42335;44.872;20.658;2023-04-30T03:50:23;25.60;;;11.70;;
56435;SDS011;42335;44.872;20.658;2023-04-30T03:52:49;21.17;;;11.95;;
56435;SDS011;42335;44.872;20.658;2023-04-30T03:55:15;25.15;;;12.30;;
56435;SDS011;42335;44.872;20.658;2023-04-30T03:57:41;20.38;;;13.50;;
56435;SDS011;42335;44.872;20.658;2023-04-30T04:00:07;28.15;;;13.80;;
56435;SDS011;42335;44.872;20.658;2023-04-30T04:02:40;23.17;;;13.17;;
56435;SDS011;42335;44.872;20.658;2023-04-30T04:05:06;21.63;;;12.95;;
56435;SDS011;42335;44.872;20.658;2023-04-30T04:07:32;25.08;;;12.93;;
56435;SDS011;42335;44.872;20.658;2023-04-30T04:09:58;24.65;;;13.27;;
56435;SDS011;42335;44.872;20.658;2023-04-30T04:12:24;20.58;;;12.60;;
56435;SDS011;42335;44.872;20.658;2023-04-30T04:14:50;27.77;;;12.52;;
56435;SDS011;42335;44.872;20.658;2023-04-30T04:17:16;28.90;;;13.43;;
56435;SDS011;42335;44.872;20.658;2023-04-30T04:19:43;21.30;;;12.77;;
56435;SDS011;42335;44.872;20.658;2023-04-30T04:22:09;25.13;;;12.57;;
56435;SDS011;42335;44.872;20.658;2023-04-30T04:24:35;21.95;;;12.63;;
56435;SDS011;42335;44.872;20.658;2023-04-30T04:27:02;21.40;;;12.30;;
56435;SDS011;42335;44.872;20.658;2023-04-30T04:29:28;22.58;;;12.95;;
56435;SDS011;42335;44.872;20.658;2023-04-30T04:31:54;28.08;;;12.80;;
56435;SDS011;42335;44.872;20.658;2023-04-30T04:34:20;22.23;;;11.82;;
56435;SDS011;42335;44.872;20.658;2023-04-30T04:36:46;32.35;;;16.35;;
56435;SDS011;42335;44.872;20.658;2023-04-30T04:39:12;26.70;;;15.50;;
56435;SDS011;42335;44.872;20.658;2023-04-30T04:41:39;27.50;;;15.27;;
56435;SDS011;42335;44.872;20.658;2023-04-30T04:44:06;22.63;;;13.43;;
56435;SDS011;42335;44.872;20.658;2023-04-30T04:46:33;23.85;;;13.02;;
56435;SDS011;42335;44.872;20.658;2023-04-30T04:48:59;25.33;;;13.68;;
56435;SDS011;42335;44.872;20.658;2023-04-30T04:51:25;22.00;;;13.23;;
56435;SDS011;42335;44.872;20.658;2023-04-30T04:53:51;23.48;;;12.55;;
56435;SDS011;42335;44.872;20.658;2023-04-30T04:56:17;25.67;;;13.00;;
56435;SDS011;42335;44.872;20.658;2023-04-30T04:58:44;19.17;;;11.73;;
56435;SDS011;42335;44.872;20.658;2023-04-30T05:01:10;21.52;;;11.15;;
56435;SDS011;42335;44.872;20.658;2023-04-30T05:03:36;21.38;;;10.82;;
56435;SDS011;42335;44.872;20.658;2023-04-30T05:06:02;18.25;;;11.80;;
56435;SDS011;42335;44.872;20.658;2023-04-30T05:08:28;20.23;;;10.38;;
56435;SDS011;42335;44.872;20.658;2023-04-30T05:10:55;20.48;;;10.85;;
56435;SDS011;42335;44.872;20.658;2023-04-30T05:13:21;26.45;;;11.68;;
56435;SDS011;42335;44.872;20.658;2023-04-30T05:15:50;22.73;;;11.60;;
56435;SDS011;42335;44.872;20.658;2023-04-30T05:18:16;18.42;;;11.85;;
56435;SDS011;42335;44.872;20.658;2023-04-30T05:20:42;19.23;;;11.25;;
56435;SDS011;42335;44.872;20.658;2023-04-30T05:23:08;20.33;;;12.77;;
56435;SDS011;42335;44.872;20.658;2023-04-30T05:25:34;18.48;;;12.07;;
56435;SDS011;42335;44.872;20.658;2023-04-30T05:28:00;23.52;;;11.82;;
56435;SDS011;42335;44.872;20.658;2023-04-30T05:30:27;21.98;;;12.15;;
56435;SDS011;42335;44.872;20.658;2023-04-30T05:32:53;18.55;;;11.95;;
56435;SDS011;42335;44.872;20.658;2023-04-30T05:35:20;19.70;;;12.23;;
56435;SDS011;42335;44.872;20.658;2023-04-30T05:37:46;17.10;;;11.68;;
56435;SDS011;42335;44.872;20.658;2023-04-30T05:40:12;27.08;;;13.07;;
56435;SDS011;42335;44.872;20.658;2023-04-30T05:42:39;17.13;;;11.88;;
56435;SDS011;42335;44.872;20.658;2023-04-30T05:45:07;21.13;;;12.00;;
56435;SDS011;42335;44.872;20.658;2023-04-30T05:47:33;22.10;;;11.68;;
56435;SDS011;42335;44.872;20.658;2023-04-30T05:49:59;19.35;;;11.68;;
56435;SDS011;42335;44.872;20.658;2023-04-30T05:52:25;27.83;;;11.75;;
56435;SDS011;42335;44.872;20.658;2023-04-30T05:54:51;22.70;;;12.05;;
56435;SDS011;42335;44.872;20.658;2023-04-30T05:57:18;22.30;;;12.20;;
56435;SDS011;42335;44.872;20.658;2023-04-30T05:59:44;17.98;;;12.07;;
56435;SDS011;42335;44.872;20.658;2023-04-30T06:02:10;14.20;;;10.60;;
56435;SDS011;42335;44.872;20.658;2023-04-30T06:04:36;27.17;;;12.25;;
56435;SDS011;42335;44.872;20.658;2023-04-30T06:07:02;19.92;;;11.30;;
56435;SDS011;42335;44.872;20.658;2023-04-30T06:09:28;24.88;;;12.98;;
56435;SDS011;42335;44.872;20.658;2023-04-30T06:11:54;19.80;;;12.05;;
56435;SDS011;42335;44.872;20.658;2023-04-30T06:14:20;19.05;;;12.00;;
56435;SDS011;42335;44.872;20.658;2023-04-30T06:16:49;21.50;;;13.20;;
56435;SDS011;42335;44.872;20.658;2023-04-30T06:19:16;22.38;;;11.90;;
56435;SDS011;42335;44.872;20.658;2023-04-30T06:21:42;18.20;;;11.85;;
56435;SDS011;42335;44.872;20.658;2023-04-30T06:24:08;25.27;;;12.80;;
56435;SDS011;42335;44.872;20.658;2023-04-30T06:26:34;19.25;;;11.50;;
56435;SDS011;42335;44.872;20.658;2023-04-30T06:29:00;23.90;;;13.23;;
56435;SDS011;42335;44.872;20.658;2023-04-30T06:31:26;21.48;;;12.52;;
56435;SDS011;42335;44.872;20.658;2023-04-30T06:33:52;22.33;;;12.02;;
56435;SDS011;42335;44.872;20.658;2023-04-30T06:36:18;21.77;;;11.38;;
56435;SDS011;42335;44.872;20.658;2023-04-30T06:38:45;22.10;;;12.20;;
56435;SDS011;42335;44.872;20.658;2023-04-30T06:41:11;26.75;;;13.93;;
56435;SDS011;42335;44.872;20.658;2023-04-30T06:43:38;21.13;;;12.32;;
56435;SDS011;42335;44.872;20.658;2023-04-30T06:46:04;19.02;;;12.43;;
56435;SDS011;42335;44.872;20.658;2023-04-30T06:48:31;18.85;;;12.77;;
56435;SDS011;42335;44.872;20.658;2023-04-30T06:50:57;22.77;;;14.10;;
56435;SDS011;42335;44.872;20.658;2023-04-30T06:53:23;18.73;;;12.70;;
56435;SDS011;42335;44.872;20.658;2023-04-30T06:55:50;18.88;;;13.13;;
56435;SDS011;42335;44.872;20.658;2023-04-30T06:58:16;17.63;;;13.10;;
56435;SDS011;42335;44.872;20.658;2023-04-30T07:00:43;24.38;;;14.00;;
56435;SDS011;42335;44.872;20.658;2023-04-30T07:03:09;22.80;;;14.40;;
56435;SDS011;42335;44.872;20.658;2023-04-30T07:05:35;22.75;;;15.02;;
56435;SDS011;42335;44.872;20.658;2023-04-30T07:08:02;22.15;;;13.65;;
56435;SDS011;42335;44.872;20.658;2023-04-30T07:10:28;24.20;;;12.20;;
56435;SDS011;42335;44.872;20.658;2023-04-30T07:12:55;20.08;;;11.77;;
56435;SDS011;42335;44.872;20.658;2023-04-30T07:15:21;18.00;;;10.02;;
56435;SDS011;42335;44.872;20.658;2023-04-30T07:17:47;17.88;;;10.05;;
56435;SDS011;42335;44.872;20.658;2023-04-30T07:20:13;17.95;;;10.75;;
56435;SDS011;42335;44.872;20.658;2023-04-30T07:22:40;13.65;;;9.82;;
56435;SDS011;42335;44.872;20.658;2023-04-30T07:25:08;14.55;;;9.23;;
56435;SDS011;42335;44.872;20.658;2023-04-30T07:27:34;24.63;;;10.18;;
56435;SDS011;42335;44.872;20.658;2023-04-30T07:29:59;16.73;;;10.98;;
56435;SDS011;42335;44.872;20.658;2023-04-30T07:32:25;22.75;;;11.02;;
56435;SDS011;42335;44.872;20.658;2023-04-30T07:34:52;19.73;;;9.07;;
56435;SDS011;42335;44.872;20.658;2023-04-30T07:37:18;12.95;;;8.95;;
56435;SDS011;42335;44.872;20.658;2023-04-30T07:39:44;13.82;;;8.45;;
56435;SDS011;42335;44.872;20.658;2023-04-30T07:42:10;13.73;;;9.32;;
56435;SDS011;42335;44.872;20.658;2023-04-30T07:44:36;13.27;;;7.78;;
56435;SDS011;42335;44.872;20.658;2023-04-30T07:47:02;14.85;;;8.75;;
56435;SDS011;42335;44.872;20.658;2023-04-30T07:49:28;13.93;;;8.35;;
56435;SDS011;42335;44.872;20.658;2023-04-30T07:51:54;19.25;;;8.05;;
56435;SDS011;42335;44.872;20.658;2023-04-30T07:54:21;13.93;;;7.63;;
56435;SDS011;42335;44.872;20.658;2023-04-30T07:56:47;14.48;;;7.82;;
56435;SDS011;42335;44.872;20.658;2023-04-30T07:59:13;13.45;;;7.55;;
56435;SDS011;42335;44.872;20.658;2023-04-30T08:01:39;14.52;;;7.45;;
56435;SDS011;42335;44.872;20.658;2023-04-30T08:04:05;10.07;;;7.30;;
56435;SDS011;42335;44.872;20.658;2023-04-30T08:06:32;12.63;;;6.45;;
56435;SDS011;42335;44.872;20.658;2023-04-30T08:08:58;9.52;;;6.97;;
56435;SDS011;42335;44.872;20.658;2023-04-30T08:11:24;10.15;;;6.50;;
56435;SDS011;42335;44.872;20.658;2023-04-30T08:13:50;14.25;;;6.03;;
56435;SDS011;42335;44.872;20.658;2023-04-30T08:16:17;8.95;;;6.13;;
56435;SDS011;42335;44.872;20.658;2023-04-30T08:18:43;9.50;;;5.65;;
56435;SDS011;42335;44.872;20.658;2023-04-30T08:21:11;7.28;;;4.43;;
56435;SDS011;42335;44.872;20.658;2023-04-30T08:23:37;7.05;;;4.97;;
56435;SDS011;42335;44.872;20.658;2023-04-30T08:26:03;14.30;;;5.45;;
56435;SDS011;42335;44.872;20.658;2023-04-30T08:28:29;11.80;;;5.18;;
56435;SDS011;42335;44.872;20.658;2023-04-30T08:30:56;19.15;;;6.00;;
56435;SDS011;42335;44.872;20.658;2023-04-30T08:33:22;8.93;;;4.97;;
56435;SDS011;42335;44.872;20.658;2023-04-30T08:35:48;9.43;;;4.40;;
56435;SDS011;42335;44.872;20.658;2023-04-30T08:38:14;6.80;;;3.75;;
56435;SDS011;42335;44.872;20.658;2023-04-30T08:40:41;6.65;;;4.18;;
56435;SDS011;42335;44.872;20.658;2023-04-30T08:43:10;9.13;;;3.85;;
56435;SDS011;42335;44.872;20.658;2023-04-30T08:45:37;13.77;;;3.78;;
56435;SDS011;42335;44.872;20.658;2023-04-30T08:48:03;6.95;;;3.60;;
56435;SDS011;42335;44.872;20.658;2023-04-30T08:50:30;13.07;;;4.30;;
56435;SDS011;42335;44.872;20.658;2023-04-30T08:52:59;7.57;;;4.18;;
56435;SDS011;42335;44.872;20.658;2023-04-30T08:55:26;16.75;;;4.47;;
56435;SDS011;42335;44.872;20.658;2023-04-30T08:57:52;9.40;;;3.90;;
56435;SDS011;42335;44.872;20.658;2023-04-30T09:00:18;9.48;;;4.03;;
56435;SDS011;42335;44.872;20.658;2023-04-30T09:02:45;6.18;;;4.10;;
56435;SDS011;42335;44.872;20.658;2023-04-30T09:05:12;10.13;;;5.22;;
56435;SDS011;42335;44.872;20.658;2023-04-30T09:07:42;7.93;;;4.93;;
56435;SDS011;42335;44.872;20.658;2023-04-30T09:10:15;14.55;;;5.78;;
56435;SDS011;42335;44.872;20.658;2023-04-30T09:12:41;10.20;;;5.97;;
56435;SDS011;42335;44.872;20.658;2023-04-30T09:15:10;9.75;;;4.40;;
56435;SDS011;42335;44.872;20.658;2023-04-30T09:17:37;10.15;;;4.50;;
56435;SDS011;42335;44.872;20.658;2023-04-30T09:22:33;10.00;;;4.05;;
56435;SDS011;42335;44.872;20.658;2023-04-30T09:25:00;8.45;;;4.13;;
56435;SDS011;42335;44.872;20.658;2023-04-30T09:27:26;6.72;;;4.22;;
56435;SDS011;42335;44.872;20.658;2023-04-30T09:29:52;6.53;;;3.88;;
56435;SDS011;42335;44.872;20.658;2023-04-30T09:32:18;9.00;;;4.88;;
56435;SDS011;42335;44.872;20.658;2023-04-30T09:34:44;9.20;;;4.93;;
56435;SDS011;42335;44.872;20.658;2023-04-30T09:37:10;19.00;;;5.90;;
56435;SDS011;42335;44.872;20.658;2023-04-30T09:39:49;10.88;;;4.18;;
56435;SDS011;42335;44.872;20.658;2023-04-30T09:42:15;9.25;;;4.10;;
56435;SDS011;42335;44.872;20.658;2023-04-30T09:44:42;10.48;;;4.90;;
56435;SDS011;42335;44.872;20.658;2023-04-30T09:49:39;8.85;;;5.20;;
56435;SDS011;42335;44.872;20.658;2023-04-30T09:52:06;8.93;;;4.68;;
56435;SDS011;42335;44.872;20.658;2023-04-30T09:54:33;7.53;;;4.65;;
56435;SDS011;42335;44.872;20.658;2023-04-30T09:57:00;14.85;;;4.43;;
56435;SDS011;42335;44.872;20.658;2023-04-30T09:59:30;12.68;;;4.47;;
56435;SDS011;42335;44.872;20.658;2023-04-30T10:02:00;7.40;;;3.80;;
56435;SDS011;42335;44.872;20.658;2023-04-30T10:04:32;6.90;;;3.72;;
56435;SDS011;42335;44.872;20.658;2023-04-30T10:06:59;10.15;;;3.53;;
56435;SDS011;42335;44.872;20.658;2023-04-30T10:09:27;6.80;;;3.50;;
56435;SDS011;42335;44.872;20.658;2023-04-30T10:11:55;8.63;;;3.20;;
56435;SDS011;42335;44.872;20.658;2023-04-30T10:14:22;7.78;;;3.88;;
56435;SDS011;42335;44.872;20.658;2023-04-30T10:16:58;7.80;;;4.03;;
56435;SDS011;42335;44.872;20.658;2023-04-30T10:19:31;6.45;;;4.03;;
56435;SDS011;42335;44.872;20.658;2023-04-30T10:21:58;7.85;;;4.32;;
56435;SDS011;42335;44.872;20.658;2023-04-30T10:24:25;10.10;;;3.90;;
56435;SDS011;42335;44.872;20.658;2023-04-30T10:26:51;6.25;;;3.42;;
56435;SDS011;42335;44.872;20.658;2023-04-30T10:29:18;6.25;;;4.43;;
56435;SDS011;42335;44.872;20.658;2023-04-30T10:31:45;5.47;;;3.20;;
56435;SDS011;42335;44.872;20.658;2023-04-30T10:36:38;9.20;;;3.58;;
56435;SDS011;42335;44.872;20.658;2023-04-30T10:39:05;8.40;;;3.90;;
56435;SDS011;42335;44.872;20.658;2023-04-30T10:41:32;7.57;;;4.13;;
56435;SDS011;42335;44.872;20.658;2023-04-30T10:44:00;11.02;;;3.70;;
56435;SDS011;42335;44.872;20.658;2023-04-30T10:46:26;7.65;;;4.20;;
56435;SDS011;42335;44.872;20.658;2023-04-30T10:48:53;9.68;;;3.63;;
56435;SDS011;42335;44.872;20.658;2023-04-30T10:51:19;11.40;;;4.22;;
56435;SDS011;42335;44.872;20.658;2023-04-30T10:53:48;11.75;;;4.35;;
56435;SDS011;42335;44.872;20.658;2023-04-30T10:56:27;25.83;;;5.03;;
56435;SDS011;42335;44.872;20.658;2023-04-30T10:58:57;9.35;;;5.40;;
56435;SDS011;42335;44.872;20.658;2023-04-30T11:01:23;19.13;;;11.50;;
56435;SDS011;42335;44.872;20.658;2023-04-30T11:04:04;26.13;;;5.70;;
56435;SDS011;42335;44.872;20.658;2023-04-30T11:06:47;8.95;;;4.13;;
56435;SDS011;42335;44.872;20.658;2023-04-30T11:09:14;15.40;;;4.95;;
56435;SDS011;42335;44.872;20.658;2023-04-30T11:11:42;8.57;;;3.85;;
56435;SDS011;42335;44.872;20.658;2023-04-30T11:14:10;14.50;;;5.45;;
56435;SDS011;42335;44.872;20.658;2023-04-30T11:16:36;9.32;;;3.92;;
56435;SDS011;42335;44.872;20.658;2023-04-30T11:19:06;8.43;;;3.80;;
56435;SDS011;42335;44.872;20.658;2023-04-30T11:21:38;8.30;;;5.30;;
56435;SDS011;42335;44.872;20.658;2023-04-30T11:24:04;7.32;;;4.43;;
56435;SDS011;42335;44.872;20.658;2023-04-30T11:27:01;9.60;;;4.90;;
56435;SDS011;42335;44.872;20.658;2023-04-30T11:29:16;7.45;;;4.45;;
56435;SDS011;42335;44.872;20.658;2023-04-30T11:31:43;13.27;;;6.13;;
56435;SDS011;42335;44.872;20.658;2023-04-30T11:34:09;10.00;;;4.80;;
56435;SDS011;42335;44.872;20.658;2023-04-30T11:36:36;8.88;;;4.15;;
56435;SDS011;42335;44.872;20.658;2023-04-30T11:39:03;7.13;;;4.60;;
56435;SDS011;42335;44.872;20.658;2023-04-30T11:41:39;8.82;;;4.18;;
56435;SDS011;42335;44.872;20.658;2023-04-30T11:44:20;9.98;;;6.10;;
56435;SDS011;42335;44.872;20.658;2023-04-30T11:46:47;10.52;;;4.07;;
56435;SDS011;42335;44.872;20.658;2023-04-30T11:49:13;15.98;;;4.38;;
56435;SDS011;42335;44.872;20.658;2023-04-30T11:51:39;6.60;;;2.60;;
56435;SDS011;42335;44.872;20.658;2023-04-30T11:54:06;11.13;;;5.80;;
56435;SDS011;42335;44.872;20.658;2023-04-30T11:56:36;10.23;;;6.72;;
56435;SDS011;42335;44.872;20.658;2023-04-30T11:59:08;9.45;;;5.82;;
56435;SDS011;42335;44.872;20.658;2023-04-30T12:01:34;9.45;;;4.65;;
56435;SDS011;42335;44.872;20.658;2023-04-30T12:04:01;8.27;;;4.28;;
56435;SDS011;42335;44.872;20.658;2023-04-30T12:06:30;10.85;;;4.70;;
56435;SDS011;42335;44.872;20.658;2023-04-30T12:08:57;8.63;;;3.53;;
56435;SDS011;42335;44.872;20.658;2023-04-30T12:11:28;6.40;;;3.17;;
56435;SDS011;42335;44.872;20.658;2023-04-30T12:13:55;7.50;;;3.70;;
56435;SDS011;42335;44.872;20.658;2023-04-30T12:16:26;8.85;;;4.30;;
56435;SDS011;42335;44.872;20.658;2023-04-30T12:18:52;6.55;;;3.80;;
56435;SDS011;42335;44.872;20.658;2023-04-30T12:21:20;7.30;;;3.80;;
56435;SDS011;42335;44.872;20.658;2023-04-30T12:23:47;5.45;;;3.60;;
56435;SDS011;42335;44.872;20.658;2023-04-30T12:26:13;10.20;;;5.45;;
56435;SDS011;42335;44.872;20.658;2023-04-30T12:28:39;8.40;;;3.70;;
56435;SDS011;42335;44.872;20.658;2023-04-30T12:31:05;9.23;;;4.20;;
56435;SDS011;42335;44.872;20.658;2023-04-30T12:33:31;9.38;;;3.53;;
56435;SDS011;42335;44.872;20.658;2023-04-30T12:35:57;11.20;;;4.70;;
56435;SDS011;42335;44.872;20.658;2023-04-30T12:38:23;6.75;;;3.75;;
56435;SDS011;42335;44.872;20.658;2023-04-30T12:40:49;8.60;;;4.57;;
56435;SDS011;42335;44.872;20.658;2023-04-30T12:43:16;7.75;;;3.80;;
56435;SDS011;42335;44.872;20.658;2023-04-30T12:45:43;9.02;;;4.28;;
56435;SDS011;42335;44.872;20.658;2023-04-30T12:48:10;8.25;;;3.92;;
56435;SDS011;42335;44.872;20.658;2023-04-30T12:50:36;6.30;;;3.97;;
56435;SDS011;42335;44.872;20.658;2023-04-30T12:53:06;8.30;;;3.90;;
56435;SDS011;42335;44.872;20.658;2023-04-30T12:55:32;7.00;;;4.15;;
56435;SDS011;42335;44.872;20.658;2023-04-30T13:03:10;9.57;;;4.38;;
56435;SDS011;42335;44.872;20.658;2023-04-30T13:05:36;7.43;;;4.10;;
56435;SDS011;42335;44.872;20.658;2023-04-30T13:08:03;10.98;;;4.22;;
56435;SDS011;42335;44.872;20.658;2023-04-30T13:10:33;10.35;;;5.18;;
56435;SDS011;42335;44.872;20.658;2023-04-30T13:12:59;10.35;;;5.20;;
56435;SDS011;42335;44.872;20.658;2023-04-30T13:15:25;20.73;;;8.55;;
56435;SDS011;42335;44.872;20.658;2023-04-30T13:17:51;7.80;;;5.05;;
56435;SDS011;42335;44.872;20.658;2023-04-30T13:20:18;7.45;;;3.97;;
56435;SDS011;42335;44.872;20.658;2023-04-30T13:22:44;12.90;;;5.15;;
56435;SDS011;42335;44.872;20.658;2023-04-30T13:25:10;8.38;;;4.22;;
56435;SDS011;42335;44.872;20.658;2023-04-30T13:27:36;8.20;;;4.43;;
56435;SDS011;42335;44.872;20.658;2023-04-30T13:30:02;6.32;;;4.28;;
56435;SDS011;42335;44.872;20.658;2023-04-30T13:32:29;11.07;;;4.80;;
56435;SDS011;42335;44.872;20.658;2023-04-30T13:34:55;10.20;;;4.47;;
56435;SDS011;42335;44.872;20.658;2023-04-30T13:37:22;9.10;;;4.88;;
56435;SDS011;42335;44.872;20.658;2023-04-30T13:39:48;6.82;;;4.22;;
56435;SDS011;42335;44.872;20.658;2023-04-30T13:42:14;10.15;;;5.95;;
56435;SDS011;42335;44.872;20.658;2023-04-30T13:44:40;8.50;;;4.75;;
56435;SDS011;42335;44.872;20.658;2023-04-30T13:47:09;8.52;;;4.45;;
56435;SDS011;42335;44.872;20.658;2023-04-30T13:49:35;8.40;;;4.35;;
56435;SDS011;42335;44.872;20.658;2023-04-30T13:52:04;6.57;;;4.30;;
56435;SDS011;42335;44.872;20.658;2023-04-30T13:54:30;9.80;;;4.45;;
56435;SDS011;42335;44.872;20.658;2023-04-30T13:56:57;7.25;;;4.55;;
56435;SDS011;42335;44.872;20.658;2023-04-30T13:59:27;10.25;;;4.72;;
56435;SDS011;42335;44.872;20.658;2023-04-30T14:01:53;9.00;;;4.13;;
56435;SDS011;42335;44.872;20.658;2023-04-30T14:04:19;9.10;;;4.22;;
56435;SDS011;42335;44.872;20.658;2023-04-30T14:06:45;9.45;;;4.55;;
56435;SDS011;42335;44.872;20.658;2023-04-30T14:09:13;10.25;;;4.72;;
56435;SDS011;42335;44.872;20.658;2023-04-30T14:11:40;10.57;;;7.53;;
56435;SDS011;42335;44.872;20.658;2023-04-30T14:14:06;14.23;;;8.68;;
56435;SDS011;42335;44.872;20.658;2023-04-30T14:16:33;7.82;;;5.03;;
56435;SDS011;42335;44.872;20.658;2023-04-30T14:18:59;9.43;;;4.20;;
56435;SDS011;42335;44.872;20.658;2023-04-30T14:21:25;14.10;;;4.28;;
56435;SDS011;42335;44.872;20.658;2023-04-30T14:23:52;10.32;;;4.45;;
56435;SDS011;42335;44.872;20.658;2023-04-30T14:26:18;8.52;;;5.03;;
56435;SDS011;42335;44.872;20.658;2023-04-30T14:28:45;11.38;;;4.38;;
56435;SDS011;42335;44.872;20.658;2023-04-30T14:31:11;5.78;;;4.45;;
56435;SDS011;42335;44.872;20.658;2023-04-30T14:33:37;12.20;;;4.78;;
56435;SDS011;42335;44.872;20.658;2023-04-30T14:36:04;6.97;;;4.50;;
56435;SDS011;42335;44.872;20.658;2023-04-30T14:38:30;11.68;;;6.47;;
56435;SDS011;42335;44.872;20.658;2023-04-30T14:40:56;9.35;;;4.80;;
56435;SDS011;42335;44.872;20.658;2023-04-30T14:43:22;8.18;;;4.72;;
56435;SDS011;42335;44.872;20.658;2023-04-30T14:45:49;7.70;;;3.90;;
56435;SDS011;42335;44.872;20.658;2023-04-30T14:48:15;8.55;;;4.38;;
56435;SDS011;42335;44.872;20.658;2023-04-30T14:50:42;8.77;;;5.20;;